Hubbardston, MA (01452)

6:42 PM EST on February 06, 2016 (GMT -0500)
Printers Brook Hill | | Change Station
CLOSE
Current Station
Personal Weather Station
Location: Hubbardston, MA
Elevation: 1020 ft
Nearby Weather Stations

Elev 1020 ft 42.48 °N, 71.94 °W | Updated 6 minutes ago

Mostly Cloudy
Mostly Cloudy
27.9 °F
Feels Like 28 °F
N
0.0
Wind Variable Wind from SW

Today
High -- | Low -- °F
--% Chance of Precip.
Yesterday
High -- | Low -- °F
Precip. -- in
Pressure 30.27 in
Visibility 10.0 miles
Clouds Clear
Windchill 28 °F
Dew Point 23 °F
Humidity 81%
Rainfall 0.05 in
Snow Depth Not available.
6:56 AM 5:07 PM
Waning Crescent, 3% visible
METAR KFIT 062252Z AUTO 17005KT 10SM CLR 00/M06 A3024 RMK AO2 SLP249 T00001056
Pressure 30.27 in
Visibility 10.0 miles
Clouds Clear
Windchill 28 °F
Dew Point 23 °F
Humidity 81%
Rainfall 0.05 in
Snow Depth Not available.
6:56 AM 5:07 PM
Waning Crescent, 3% visible
METAR KFIT 062252Z AUTO 17005KT 10SM CLR 00/M06 A3024 RMK AO2 SLP249 T00001056

10-Day Weather Forecast

Almanac

Astronomy

Feb. 06, 2016 Rise Set
Actual Time
Civil Twilight
Nautical Twilight
Astronomical Twilight
Moon
Length of Visible Light
Length of Day
Tomorrow will be .
, % of the Moon is Illuminated

Today's Extremes

State Highs State Lows

Community

WunderPhotos

Upload Photos

1,891,098 photos uploaded!

WunderBlog® & News

Nearby

Air Quality

  Air Quality AQ Index Pollutant
Not available.

Snow Depth

Station Depth Elevation

Earthquake Activity

City Distance Mag. Time & Date
Minimum magnitude displayed is 2.5.

Coastal Water Temperatures

Place Temperature

Stations

Nearby Weather Stations

Station Location Temp. Windchill Dew Point Humidity Wind Precip. Elev Updated Type
                   

Watches & Warnings

There are currently no watches in effect.